Time;durP1;ratioP1;P1;durP2;ratioP2;P2;SDS_P1;SDS_P2;PMS_P1;PMS_P2;Temp;Humidity;BMP_temperature;BMP_pressure;BME280_temperature;BME280_humidity;BME280_pressure;Samples;Min_cycle;Max_cycle;Signal;HPM_P1;HPM_P2
2023/03/12 05:59:47;;;;;;;27.77;3.15;;;13.10;53.50;;;;;;5537740;24;20480;-79
2023/03/12 06:02:12;;;;;;;19.45;2.83;;;13.30;55.70;;;;;;4849459;29;20062;-84
2023/03/12 06:04:38;;;;;;;17.45;2.83;;;13.40;55.20;;;;;;4815796;29;20094;-84
2023/03/12 06:07:06;;;;;;;16.65;3.25;;;13.50;55.40;;;;;;4832376;29;20109;-79
2023/03/12 06:09:32;;;;;;;16.70;2.88;;;13.50;55.30;;;;;;4831164;29;20393;-77
2023/03/12 06:15:53;;;;;;;25.85;3.88;;;13.70;56.10;;;;;;4825655;29;20121;-90
2023/03/12 06:22:14;;;;;;;16.98;3.20;;;13.90;57.00;;;;;;4790357;30;20144;-90
2023/03/12 06:24:46;;;;;;;20.38;2.92;;;14.10;56.90;;;;;;4775214;30;20050;-86
2023/03/12 06:49:41;;;;;;;15.98;2.70;;;14.50;57.60;;;;;;4843016;29;20046;-89
2023/03/12 06:52:45;;;;;;;23.90;3.22;;;14.50;57.80;;;;;;4845607;29;20029;-91
2023/03/12 06:55:46;;;;;;;13.23;2.38;;;14.60;57.90;;;;;;4823335;29;20133;-89
2023/03/12 06:58:38;;;;;;;13.63;2.55;;;14.60;57.80;;;;;;4833725;29;20497;-90
2023/03/12 07:01:22;;;;;;;14.18;2.38;;;14.70;57.90;;;;;;4837863;29;20038;-88
2023/03/12 07:03:48;;;;;;;18.33;2.92;;;14.70;57.80;;;;;;4826862;29;20042;-88
2023/03/12 07:14:00;;;;;;;14.73;2.53;;;14.90;58.70;;;;;;4777905;29;20127;-91
2023/03/12 07:16:41;;;;;;;11.80;2.13;;;14.90;58.80;;;;;;4768101;29;20063;-89
2023/03/12 07:19:21;;;;;;;18.67;2.45;;;14.90;59.10;;;;;;4815696;29;20042;-78
2023/03/12 07:21:47;;;;;;;15.52;2.75;;;15.00;58.40;;;;;;4844646;29;20050;-88
2023/03/12 07:24:13;;;;;;;11.20;2.35;;;15.00;58.60;;;;;;4829541;29;20470;-87
2023/03/12 07:26:42;;;;;;;17.17;3.33;;;15.00;58.40;;;;;;4829489;29;20117;-86
2023/03/12 07:29:08;;;;;;;23.65;3.55;;;15.00;58.20;;;;;;4829220;29;20122;-88
2023/03/12 07:31:38;;;;;;;13.65;3.35;;;15.10;58.30;;;;;;4829357;29;20065;-85
2023/03/12 07:34:04;;;;;;;16.83;3.00;;;15.10;58.30;;;;;;4844820;29;20102;-87
2023/03/12 07:36:31;;;;;;;22.27;3.15;;;15.20;58.30;;;;;;4829226;29;20038;-85
2023/03/12 07:38:59;;;;;;;21.00;2.90;;;15.20;58.10;;;;;;4830243;29;20398;-86
2023/03/12 07:41:25;;;;;;;19.40;3.03;;;15.20;58.00;;;;;;4829283;29;20114;-84
2023/03/12 07:43:50;;;;;;;25.55;3.55;;;15.20;58.00;;;;;;4826037;29;20047;-84
2023/03/12 07:46:17;;;;;;;20.90;2.92;;;15.30;57.80;;;;;;4841523;29;20457;-84
2023/03/12 07:48:42;;;;;;;25.30;3.42;;;15.30;58.30;;;;;;4829233;29;20053;-86
2023/03/12 07:51:08;;;;;;;19.40;2.92;;;15.40;57.50;;;;;;4828957;29;20054;-83
2023/03/12 08:07:20;;;;;;;16.70;2.77;;;15.60;57.30;;;;;;4789567;30;20062;-82
2023/03/12 08:09:48;;;;;;;19.77;3.00;;;15.60;57.40;;;;;;4789704;30;20062;-83
2023/03/12 08:12:13;;;;;;;19.67;3.10;;;15.60;57.30;;;;;;4775078;30;20039;-83
2023/03/12 08:14:39;;;;;;;20.85;3.75;;;15.70;57.30;;;;;;4789760;30;20043;-86
2023/03/12 08:17:05;;;;;;;26.48;2.72;;;15.70;57.30;;;;;;4774214;30;20048;-83
2023/03/12 08:19:31;;;;;;;21.33;3.42;;;15.80;57.10;;;;;;4789556;30;20055;-83
2023/03/12 08:22:06;;;;;;;16.70;2.90;;;15.80;57.10;;;;;;4789939;30;20370;-82
2023/03/12 08:24:34;;;;;;;19.65;2.90;;;15.70;53.30;;;;;;4790158;29;20035;-81
2023/03/12 08:27:01;;;;;;;21.38;2.78;;;15.60;56.40;;;;;;4771124;30;20050;-85
2023/03/12 08:29:29;;;;;;;13.93;2.10;;;15.60;56.30;;;;;;4772426;30;20043;-84
2023/03/12 08:31:58;;;;;;;32.20;3.03;;;15.50;56.30;;;;;;4771744;30;20395;-86
2023/03/12 08:34:26;;;;;;;24.90;2.88;;;15.50;56.30;;;;;;4788872;30;20062;-83
2023/03/12 08:36:52;;;;;;;13.93;2.50;;;15.50;56.30;;;;;;4788936;30;20372;-78
2023/03/12 08:39:17;;;;;;;16.15;2.78;;;15.40;56.30;;;;;;4789033;29;20131;-83
2023/03/12 08:41:43;;;;;;;4.25;2.05;;;15.40;56.30;;;;;;4773991;30;20051;-82
2023/03/12 08:44:09;;;;;;;6.93;2.10;;;15.30;53.60;;;;;;4789810;30;20032;-82
2023/03/12 08:46:35;;;;;;;4.63;2.05;;;15.10;52.00;;;;;;4773433;30;20035;-82
2023/03/12 08:49:01;;;;;;;8.23;2.40;;;15.00;51.60;;;;;;4800725;29;20047;-82
2023/03/12 08:51:26;;;;;;;7.25;2.20;;;14.90;51.50;;;;;;4790058;30;20055;-81
2023/03/12 08:53:52;;;;;;;7.07;2.10;;;14.80;50.90;;;;;;4789195;30;20058;-81
2023/03/12 08:56:18;;;;;;;6.18;2.00;;;14.70;51.20;;;;;;4785649;30;20043;-80
2023/03/12 08:58:43;;;;;;;8.50;2.88;;;14.70;51.40;;;;;;4801031;29;20063;-80
2023/03/12 09:01:12;;;;;;;7.22;1.58;;;14.80;51.20;;;;;;4773215;30;20044;-81
2023/03/12 09:03:39;;;;;;;10.27;1.83;;;14.80;51.50;;;;;;4773532;30;20371;-84
2023/03/12 09:06:15;;;;;;;9.75;2.13;;;14.90;51.80;;;;;;4789166;30;20047;-88
2023/03/12 09:08:45;;;;;;;13.48;2.58;;;15.00;52.20;;;;;;4773074;30;20054;-85
2023/03/12 09:11:13;;;;;;;10.82;2.10;;;15.00;52.60;;;;;;4771219;30;20188;-81
2023/03/12 09:13:42;;;;;;;9.93;1.95;;;15.10;52.80;;;;;;4786446;30;20074;-81
2023/03/12 09:16:08;;;;;;;8.73;2.03;;;15.20;53.00;;;;;;4772635;30;20039;-84
2023/03/12 09:18:35;;;;;;;14.85;1.92;;;15.20;53.10;;;;;;4773711;30;20050;-86
2023/03/12 09:21:27;;;;;;;9.07;1.75;;;15.20;52.90;;;;;;4773880;30;20069;-86
2023/03/12 09:23:53;;;;;;;16.55;2.00;;;15.20;53.60;;;;;;4789084;29;20126;-81
2023/03/12 09:26:21;;;;;;;18.80;2.88;;;15.20;53.90;;;;;;4788928;30;20078;-83
2023/03/12 09:29:00;;;;;;;;;;;;;;;;;;;;;
2023/03/12 09:31:29;;;;;;;11.48;1.75;;;15.30;54.10;;;;;;4788280;30;20467;-82
2023/03/12 09:33:54;;;;;;;20.10;2.83;;;15.40;54.20;;;;;;4788067;30;20054;-84
2023/03/12 09:36:20;;;;;;;22.30;2.85;;;15.40;54.40;;;;;;4774738;30;20394;-85
2023/03/12 09:38:46;;;;;;;21.15;2.72;;;15.50;54.50;;;;;;4791254;30;20047;-85
2023/03/12 09:41:22;;;;;;;18.08;3.13;;;15.50;54.70;;;;;;4791883;30;20080;-82
2023/03/12 09:44:16;;;;;;;11.20;2.03;;;15.60;54.80;;;;;;4777151;30;20043;-80
2023/03/12 09:46:54;;;;;;;21.23;4.53;;;15.60;54.70;;;;;;4792926;29;20047;-81
2023/03/12 09:49:42;;;;;;;16.48;2.55;;;15.60;54.90;;;;;;4776956;30;20054;-84
2023/03/12 09:52:29;;;;;;;14.93;1.95;;;15.60;55.20;;;;;;4791440;30;20528;-84
2023/03/12 09:55:10;;;;;;;26.20;3.03;;;15.70;55.30;;;;;;4776333;30;20055;-82
2023/03/12 09:57:35;;;;;;;31.80;3.70;;;15.70;55.20;;;;;;4792800;29;20084;-80
2023/03/12 10:00:06;;;;;;;20.70;2.42;;;15.70;55.10;;;;;;4791760;30;20122;-79
2023/03/12 10:03:01;;;;;;;18.52;2.85;;;15.70;55.20;;;;;;4791641;30;20050;-77
2023/03/12 10:05:46;;;;;;;36.60;3.60;;;15.80;55.00;;;;;;4790220;30;20386;-80
2023/03/12 10:08:28;;;;;;;21.02;3.63;;;15.80;55.10;;;;;;4790774;30;20087;-81
2023/03/12 10:11:07;;;;;;;35.13;3.80;;;15.80;54.50;;;;;;4791749;30;20564;-80
2023/03/12 10:13:54;;;;;;;24.95;3.10;;;15.90;54.30;;;;;;4792611;29;20118;-78
2023/03/12 10:17:04;;;;;;;11.70;2.05;;;15.80;53.90;;;;;;4791313;30;20126;-80
2023/03/12 10:20:08;;;;;;;18.77;2.42;;;15.90;54.00;;;;;;4792496;30;20082;-85
2023/03/12 10:23:01;;;;;;;20.35;2.45;;;15.90;53.90;;;;;;4806317;29;20062;-79
2023/03/12 10:25:34;;;;;;;15.87;2.20;;;15.90;53.90;;;;;;4787967;30;20047;-77
2023/03/12 10:28:17;;;;;;;9.90;2.55;;;15.90;54.00;;;;;;4784046;30;20151;-85
2023/03/12 10:30:55;;;;;;;7.93;2.33;;;15.90;54.10;;;;;;4789383;30;20059;-82
2023/03/12 10:33:44;;;;;;;11.07;2.10;;;15.90;54.40;;;;;;4791257;30;20597;-79
2023/03/12 10:36:16;;;;;;;16.55;2.28;;;15.90;54.80;;;;;;4776453;30;20043;-85
2023/03/12 10:38:42;;;;;;;26.98;3.67;;;15.90;55.20;;;;;;4791591;30;20119;-84
2023/03/12 11:02:00;;;;;;;14.10;2.33;;;16.20;59.60;;;;;;4841393;29;20068;-84
2023/03/12 11:04:36;;;;;;;11.63;2.42;;;16.10;59.40;;;;;;4836356;29;20059;-86
2023/03/12 11:07:14;;;;;;;17.23;2.63;;;16.10;59.50;;;;;;4827120;29;20046;-86
2023/03/12 11:09:43;;;;;;;13.77;3.00;;;16.10;59.70;;;;;;4829190;29;20837;-87
2023/03/12 11:12:29;;;;;;;10.07;2.65;;;16.10;59.50;;;;;;4832497;29;20482;-85
2023/03/12 11:14:59;;;;;;;11.23;2.10;;;16.10;59.70;;;;;;4844938;29;20054;-86
2023/03/12 11:18:18;;;;;;;11.70;2.30;;;16.10;59.70;;;;;;4833682;29;20061;-87
2023/03/12 11:20:44;;;;;;;15.23;2.35;;;16.00;59.70;;;;;;4790863;29;20084;-84
2023/03/12 11:23:21;;;;;;;17.45;2.72;;;16.00;59.70;;;;;;4787323;29;20127;-86
2023/03/12 11:26:00;;;;;;;8.20;2.20;;;15.90;59.90;;;;;;4810474;29;20054;-86
2023/03/12 11:28:39;;;;;;;15.05;2.63;;;15.90;60.00;;;;;;4827033;29;20090;-85
2023/03/12 11:38:48;;;;;;;28.75;3.97;;;15.80;60.20;;;;;;4845604;29;20099;-84
2023/03/12 11:41:41;;;;;;;29.52;4.25;;;15.90;60.30;;;;;;4824419;29;20065;-84
2023/03/12 11:44:48;;;;;;;21.80;2.93;;;15.90;60.30;;;;;;4829187;29;20606;-86
2023/03/12 12:06:54;;;;;;;15.43;2.65;;;16.10;59.70;;;;;;4767971;29;20089;-84
2023/03/12 12:17:48;;;;;;;26.15;3.10;;;16.10;60.20;;;;;;4839958;24;20066;-87
2023/03/12 12:21:01;;;;;;;17.27;4.18;;;16.10;59.70;;;;;;4741607;30;20093;-87
2023/03/12 12:23:54;;;;;;;19.05;2.90;;;16.10;59.90;;;;;;4807427;29;20068;-76
2023/03/12 12:26:42;;;;;;;20.08;2.28;;;16.10;60.00;;;;;;4806527;29;20066;-80
2023/03/12 12:29:18;;;;;;;16.33;2.78;;;16.00;60.00;;;;;;4808085;29;20046;-79
2023/03/12 12:31:54;;;;;;;12.70;2.92;;;16.10;60.10;;;;;;4808431;29;20039;-80
2023/03/12 12:34:22;;;;;;;21.25;3.97;;;16.00;59.90;;;;;;4805051;29;20454;-78
2023/03/12 12:37:02;;;;;;;15.23;3.28;;;16.10;59.80;;;;;;4806410;29;20387;-78
2023/03/12 12:39:39;;;;;;;17.88;3.47;;;16.00;59.70;;;;;;4807703;29;20066;-77
2023/03/12 12:42:11;;;;;;;15.43;3.30;;;16.00;59.60;;;;;;4808180;29;20103;-77
2023/03/12 12:44:45;;;;;;;9.98;3.03;;;16.00;59.50;;;;;;4808539;29;20061;-75
2023/03/12 12:47:17;;;;;;;13.73;3.00;;;16.00;59.40;;;;;;4808121;29;20112;-77
2023/03/12 12:49:53;;;;;;;13.45;3.72;;;16.00;59.50;;;;;;4806859;29;20430;-74
2023/03/12 12:52:20;;;;;;;16.77;3.83;;;16.00;60.00;;;;;;4803913;29;20050;-76
2023/03/12 12:54:56;;;;;;;12.27;3.00;;;16.10;59.80;;;;;;4791209;29;20563;-75
2023/03/12 12:58:06;;;;;;;9.13;2.75;;;16.20;59.70;;;;;;4807706;29;20065;-77
2023/03/12 13:00:41;;;;;;;14.45;3.30;;;16.20;59.70;;;;;;4789578;29;20405;-75
2023/03/12 13:03:12;;;;;;;15.48;2.80;;;16.20;59.50;;;;;;4807420;29;20101;-76
2023/03/12 13:06:01;;;;;;;9.73;2.33;;;16.30;60.30;;;;;;4807452;29;20049;-75
2023/03/12 13:08:41;;;;;;;9.05;2.60;;;16.30;59.60;;;;;;4806867;29;20074;-74
2023/03/12 13:11:16;;;;;;;10.25;2.70;;;16.30;59.60;;;;;;4806586;29;20447;-75
2023/03/12 13:14:02;;;;;;;10.82;2.72;;;16.30;59.60;;;;;;4807424;29;20051;-75
2023/03/12 13:16:41;;;;;;;13.25;2.95;;;16.30;59.50;;;;;;4789926;29;20195;-79
2023/03/12 13:19:20;;;;;;;11.25;2.22;;;16.30;59.50;;;;;;4805746;29;20055;-76
2023/03/12 13:22:02;;;;;;;12.63;2.65;;;16.20;59.40;;;;;;4806333;29;20058;-77
2023/03/12 13:24:55;;;;;;;9.55;2.40;;;16.20;59.40;;;;;;4805717;29;20130;-73
2023/03/12 13:27:21;;;;;;;10.82;2.35;;;16.20;59.40;;;;;;4802591;29;20061;-76
2023/03/12 13:29:56;;;;;;;9.25;2.42;;;16.20;59.40;;;;;;4805826;29;20128;-73
2023/03/12 13:33:07;;;;;;;10.45;2.40;;;16.20;59.30;;;;;;4805416;29;20051;-76
2023/03/12 13:35:46;;;;;;;12.65;2.45;;;16.20;59.40;;;;;;4804084;29;20047;-77
2023/03/12 13:38:58;;;;;;;9.25;2.65;;;16.20;59.50;;;;;;4804148;29;20123;-78
2023/03/12 13:42:03;;;;;;;9.55;2.08;;;16.20;59.40;;;;;;4803091;29;20062;-78
2023/03/12 13:44:48;;;;;;;11.80;2.45;;;16.20;59.50;;;;;;4803814;29;20054;-78
2023/03/12 13:47:33;;;;;;;8.90;2.30;;;16.20;59.50;;;;;;4805362;29;20055;-77
2023/03/12 13:50:18;;;;;;;12.45;2.35;;;16.20;59.60;;;;;;4806301;29;20051;-77
2023/03/12 13:53:16;;;;;;;12.90;3.53;;;16.20;59.70;;;;;;4805955;29;20046;-77
2023/03/12 13:56:02;;;;;;;13.50;2.50;;;16.10;59.70;;;;;;4800086;29;20051;-81
2023/03/12 13:59:01;;;;;;;14.88;2.95;;;16.10;59.70;;;;;;4806852;29;20493;-77
2023/03/12 14:01:52;;;;;;;12.38;2.97;;;16.10;59.70;;;;;;4806452;29;20086;-77
2023/03/12 14:04:44;;;;;;;15.05;2.85;;;16.20;59.80;;;;;;4805281;29;20474;-78
2023/03/12 14:07:52;;;;;;;13.52;3.20;;;16.20;59.80;;;;;;4804994;29;20061;-78
2023/03/12 14:10:28;;;;;;;;;;;16.20;60.00;;;;;;4805466;29;20050;-77
2023/03/12 14:13:24;;;;;;;11.27;2.35;;;16.10;60.20;;;;;;4806933;29;19925;-76
2023/03/12 14:16:46;;;;;;;18.92;5.18;;;16.10;60.30;;;;;;4786626;29;20154;-81
2023/03/12 14:19:37;;;;;;;27.60;5.65;;;16.10;58.60;;;;;;4814707;29;20098;-78
2023/03/12 14:22:21;;;;;;;23.77;6.35;;;15.90;58.50;;;;;;4794810;29;20058;-79
2023/03/12 14:25:39;;;;;;;21.55;5.03;;;15.60;58.90;;;;;;4808432;29;20417;-79
2023/03/12 14:28:40;;;;;;;24.35;5.50;;;15.30;59.90;;;;;;4791446;29;20061;-79
2023/03/12 14:31:26;;;;;;;24.92;4.85;;;15.20;60.70;;;;;;4808458;29;20054;-78
2023/03/12 14:34:09;;;;;;;24.35;5.38;;;15.20;60.80;;;;;;4809212;29;20046;-76
2023/03/12 14:37:04;;;;;;;15.85;4.72;;;15.20;60.90;;;;;;4793069;29;20059;-77
2023/03/12 14:39:50;;;;;;;30.35;5.20;;;15.20;60.90;;;;;;4792328;29;20091;-78
2023/03/12 14:42:43;;;;;;;20.25;4.40;;;15.20;61.10;;;;;;4809820;29;20054;-77
2023/03/12 14:45:37;;;;;;;;;;;;;;;;;;;;;
2023/03/12 14:48:22;;;;;;;27.67;6.32;;;15.30;61.40;;;;;;4809237;29;20067;-78
2023/03/12 14:51:43;;;;;;;28.17;4.72;;;15.30;61.30;;;;;;4809053;29;20074;-78
2023/03/12 14:54:31;;;;;;;24.10;5.63;;;15.30;61.60;;;;;;4819335;29;20063;-79
2023/03/12 14:57:36;;;;;;;27.85;5.47;;;15.30;61.40;;;;;;4809094;29;20081;-79
2023/03/12 15:00:24;;;;;;;27.08;6.32;;;15.30;61.40;;;;;;4807070;29;20066;-80
2023/03/12 15:03:10;;;;;;;24.23;5.05;;;15.30;61.20;;;;;;4809134;29;20177;-80
2023/03/12 15:06:00;;;;;;;20.95;5.28;;;15.30;61.20;;;;;;4808671;29;20051;-80
2023/03/12 15:08:48;;;;;;;24.38;4.90;;;15.20;61.20;;;;;;4794464;29;20054;-79
2023/03/12 15:11:51;;;;;;;27.35;5.35;;;15.20;61.30;;;;;;4822191;29;20051;-78
2023/03/12 15:14:37;;;;;;;19.30;4.93;;;15.20;61.50;;;;;;4808855;29;20462;-78
2023/03/12 15:17:29;;;;;;;19.88;4.88;;;15.20;61.60;;;;;;4793667;29;20063;-78
2023/03/12 15:20:17;;;;;;;23.77;4.80;;;15.20;61.60;;;;;;4807616;29;20042;-78
2023/03/12 15:22:52;;;;;;;22.67;5.50;;;15.10;61.60;;;;;;4804711;29;20046;-78
2023/03/12 15:25:32;;;;;;;24.20;5.10;;;15.10;61.70;;;;;;4808307;29;20046;-81
2023/03/12 15:28:02;;;;;;;23.95;4.75;;;15.10;61.60;;;;;;4809243;29;20477;-79
2023/03/12 15:30:37;;;;;;;17.80;4.03;;;15.10;61.50;;;;;;4795123;29;20070;-81
2023/03/12 15:33:23;;;;;;;;;;;15.10;61.50;;;;;;4808884;29;20041;-78
2023/03/12 15:36:09;;;;;;;19.05;5.45;;;15.00;61.40;;;;;;4794678;29;20356;-81
2023/03/12 15:38:54;;;;;;;17.13;4.82;;;15.00;61.40;;;;;;4795261;29;20031;-80
2023/03/12 15:41:26;;;;;;;20.17;5.15;;;15.00;61.40;;;;;;4791644;29;20112;-78
2023/03/12 15:43:58;;;;;;;19.95;4.70;;;15.00;61.40;;;;;;4808123;29;20047;-79
2023/03/12 15:46:28;;;;;;;27.05;4.78;;;15.00;61.40;;;;;;4805557;29;20050;-83
2023/03/12 15:49:04;;;;;;;22.42;4.95;;;15.00;61.40;;;;;;4807847;29;20058;-81
2023/03/12 15:51:36;;;;;;;28.45;5.60;;;15.00;61.60;;;;;;4807234;29;20160;-79
2023/03/12 15:54:02;;;;;;;26.52;5.47;;;15.00;61.80;;;;;;4807097;29;20058;-79
2023/03/12 15:56:30;;;;;;;32.15;6.22;;;15.10;62.20;;;;;;4807602;29;20058;-80
2023/03/12 15:59:19;;;;;;;23.20;5.55;;;15.20;62.40;;;;;;4792276;29;20046;-83
2023/03/12 16:01:48;;;;;;;36.65;7.10;;;15.30;62.50;;;;;;4778551;29;20454;-79
2023/03/12 16:04:14;;;;;;;27.00;6.32;;;15.40;62.50;;;;;;4807381;29;20075;-80
2023/03/12 16:06:42;;;;;;;37.08;6.68;;;15.50;62.50;;;;;;4792462;29;20093;-82
2023/03/12 16:09:13;;;;;;;32.50;6.35;;;15.60;62.50;;;;;;4792576;29;20050;-80
2023/03/12 16:11:39;;;;;;;33.92;6.18;;;15.60;62.60;;;;;;4807836;29;20481;-79
2023/03/12 16:14:12;;;;;;;40.78;7.05;;;15.60;62.60;;;;;;4807378;29;20046;-77
2023/03/12 16:16:38;;;;;;;40.22;6.70;;;15.70;62.60;;;;;;4807179;29;20065;-79
2023/03/12 16:19:16;;;;;;;43.72;7.50;;;15.70;62.80;;;;;;4807747;29;20051;-79
2023/03/12 16:21:42;;;;;;;38.03;7.90;;;15.70;63.00;;;;;;4822830;29;20081;-78
2023/03/12 16:24:08;;;;;;;39.17;6.80;;;15.70;63.00;;;;;;4807585;29;20065;-80
2023/03/12 16:26:36;;;;;;;40.67;6.70;;;15.70;63.20;;;;;;4807486;29;20046;-78
2023/03/12 16:29:03;;;;;;;48.17;7.30;;;15.70;63.30;;;;;;4807811;29;20482;-80
2023/03/12 16:31:29;;;;;;;36.45;7.25;;;15.70;63.30;;;;;;4808772;29;20043;-79
2023/03/12 16:33:55;;;;;;;27.48;5.60;;;15.70;63.40;;;;;;4807221;29;20476;-79
2023/03/12 16:36:21;;;;;;;37.60;7.95;;;15.70;63.40;;;;;;4808212;29;20477;-79
2023/03/12 16:38:47;;;;;;;34.20;6.00;;;15.70;63.40;;;;;;4809062;29;20062;-79
2023/03/12 16:41:15;;;;;;;29.60;6.10;;;15.80;63.40;;;;;;4807632;29;20051;-79
2023/03/12 16:43:47;;;;;;;22.10;5.28;;;15.80;63.40;;;;;;4806963;29;20056;-78
2023/03/12 16:46:19;;;;;;;32.38;6.25;;;15.90;63.30;;;;;;4808614;29;20055;-78
2023/03/12 16:48:45;;;;;;;29.88;6.07;;;15.90;63.50;;;;;;4807622;29;20058;-77
2023/03/12 16:51:15;;;;;;;32.17;6.45;;;16.00;63.40;;;;;;4808202;29;20051;-78
2023/03/12 16:53:42;;;;;;;24.58;5.30;;;16.10;63.30;;;;;;4806826;29;20118;-78
2023/03/12 16:56:23;;;;;;;22.45;4.63;;;16.20;63.10;;;;;;4806745;29;20063;-79
2023/03/12 16:58:50;;;;;;;24.13;4.88;;;16.20;63.10;;;;;;4820160;29;20058;-79
2023/03/12 17:01:18;;;;;;;27.13;4.95;;;16.30;63.00;;;;;;4807717;29;20082;-78
2023/03/12 17:03:48;;;;;;;31.88;5.63;;;16.30;62.80;;;;;;4806934;29;20455;-78
2023/03/12 17:06:19;;;;;;;37.22;5.70;;;16.40;62.90;;;;;;4808104;29;20057;-75
2023/03/12 17:08:46;;;;;;;33.55;5.97;;;16.40;62.90;;;;;;4808044;29;20447;-77
2023/03/12 17:11:26;;;;;;;36.05;6.95;;;16.40;62.80;;;;;;4807537;29;20436;-78
2023/03/12 17:14:09;;;;;;;26.88;5.30;;;16.40;62.80;;;;;;4808021;29;20054;-77
2023/03/12 17:16:34;;;;;;;27.50;5.38;;;16.50;62.80;;;;;;4806558;29;20082;-75
2023/03/12 17:19:00;;;;;;;35.28;6.40;;;16.40;62.70;;;;;;4808179;29;20054;-76
2023/03/12 17:21:26;;;;;;;27.13;5.10;;;16.40;62.90;;;;;;4807707;29;20371;-76
2023/03/12 17:23:51;;;;;;;28.00;5.78;;;16.30;62.60;;;;;;4808306;29;20062;-75
2023/03/12 17:26:18;;;;;;;26.15;6.07;;;16.30;62.70;;;;;;4807768;29;20046;-75
2023/03/12 17:28:44;;;;;;;22.77;4.32;;;16.30;62.80;;;;;;4807012;29;20062;-75
2023/03/12 17:31:10;;;;;;;25.23;5.20;;;16.20;62.70;;;;;;4807701;29;20050;-75
2023/03/12 17:33:37;;;;;;;19.27;5.28;;;16.20;62.40;;;;;;4808518;29;20050;-75
2023/03/12 17:36:08;;;;;;;21.73;5.10;;;16.10;61.90;;;;;;4807669;29;20058;-75
2023/03/12 17:38:34;;;;;;;27.17;5.40;;;16.10;61.10;;;;;;4808032;29;20050;-75
2023/03/12 17:41:00;;;;;;;21.10;4.72;;;16.10;61.00;;;;;;4807325;29;20051;-75
2023/03/12 17:43:27;;;;;;;22.17;5.18;;;16.00;60.90;;;;;;4807448;29;20065;-76
2023/03/12 17:45:53;;;;;;;21.98;5.90;;;16.00;60.90;;;;;;4807981;29;20051;-76
2023/03/12 17:48:21;;;;;;;19.25;4.88;;;16.00;60.90;;;;;;4807835;29;20472;-76
2023/03/12 17:50:47;;;;;;;22.58;4.68;;;15.90;60.70;;;;;;4807664;29;20059;-75
2023/03/12 17:53:15;;;;;;;16.65;4.70;;;15.90;60.70;;;;;;4807517;29;20340;-75
2023/03/12 17:55:41;;;;;;;19.10;5.30;;;15.90;60.80;;;;;;4807706;29;20050;-76
2023/03/12 17:58:06;;;;;;;19.20;4.88;;;15.80;60.80;;;;;;4810439;29;20100;-75
2023/03/12 18:00:32;;;;;;;16.65;4.40;;;15.80;60.80;;;;;;4811089;29;20416;-74
2023/03/12 18:02:58;;;;;;;15.13;4.80;;;15.70;60.90;;;;;;4810472;29;20066;-75
2023/03/12 18:05:24;;;;;;;18.05;4.90;;;15.70;60.90;;;;;;4811150;29;20051;-75
2023/03/12 18:07:50;;;;;;;19.83;5.40;;;15.70;61.00;;;;;;4810837;29;20097;-75
2023/03/12 18:10:16;;;;;;;17.92;4.25;;;15.60;61.10;;;;;;4810047;29;20114;-76
2023/03/12 18:12:42;;;;;;;29.13;6.65;;;15.60;61.50;;;;;;4810399;29;20083;-76
2023/03/12 18:15:12;;;;;;;25.23;5.20;;;15.50;62.00;;;;;;4810865;29;20442;-75
2023/03/12 18:17:38;;;;;;;21.88;5.72;;;15.50;62.60;;;;;;4823731;29;20074;-78
2023/03/12 18:20:08;;;;;;;26.73;5.90;;;15.40;63.30;;;;;;4814629;29;20070;-75
2023/03/12 18:22:36;;;;;;;16.77;5.00;;;15.40;64.20;;;;;;4810598;29;20051;-76
2023/03/12 18:25:02;;;;;;;19.90;5.20;;;15.40;64.80;;;;;;4810834;29;20134;-77
2023/03/12 18:27:27;;;;;;;17.45;4.43;;;15.40;65.30;;;;;;4809807;29;20149;-76
2023/03/12 18:29:53;;;;;;;22.17;4.40;;;15.30;65.60;;;;;;4810602;29;20065;-76
2023/03/12 18:32:19;;;;;;;23.00;4.93;;;15.30;65.70;;;;;;4784165;30;20047;-77
2023/03/12 18:34:46;;;;;;;20.08;4.70;;;15.30;65.90;;;;;;4806885;29;20343;-72
2023/03/12 18:37:12;;;;;;;28.88;6.00;;;15.30;66.20;;;;;;4826805;29;20069;-74
2023/03/12 18:39:38;;;;;;;19.75;4.22;;;15.30;66.10;;;;;;4828358;29;20090;-76
2023/03/12 18:42:04;;;;;;;14.02;3.88;;;15.30;66.10;;;;;;4812935;29;20142;-77
2023/03/12 18:44:29;;;;;;;19.40;4.30;;;15.20;66.00;;;;;;4813336;29;20378;-75
2023/03/12 18:46:55;;;;;;;17.75;4.65;;;15.20;65.90;;;;;;4827586;29;20042;-74
2023/03/12 18:49:21;;;;;;;13.35;3.85;;;15.20;65.90;;;;;;4822604;29;20443;-76
2023/03/12 18:51:47;;;;;;;17.77;5.03;;;15.20;65.90;;;;;;4810623;29;20129;-76
2023/03/12 18:54:13;;;;;;;18.05;4.47;;;15.20;65.80;;;;;;4810428;29;20058;-74
2023/03/12 18:56:39;;;;;;;19.95;4.82;;;15.20;65.70;;;;;;4809784;29;20051;-75
2023/03/12 18:59:06;;;;;;;18.77;4.00;;;15.10;65.60;;;;;;4810124;29;20055;-77
2023/03/12 19:01:32;;;;;;;21.38;3.90;;;15.10;65.70;;;;;;4795586;29;20115;-74
2023/03/12 19:03:58;;;;;;;18.98;4.47;;;15.10;65.60;;;;;;4814245;29;20058;-79
2023/03/12 19:06:24;;;;;;;25.08;5.68;;;15.10;65.30;;;;;;4828209;29;20065;-77
2023/03/12 19:08:49;;;;;;;21.33;4.85;;;15.10;65.10;;;;;;4823242;29;20459;-77
2023/03/12 19:11:15;;;;;;;17.40;4.65;;;15.10;65.10;;;;;;4809444;29;20115;-76
2023/03/12 19:13:42;;;;;;;19.75;4.53;;;15.10;65.00;;;;;;4809178;29;20149;-77
2023/03/12 19:16:10;;;;;;;17.33;4.38;;;15.10;65.10;;;;;;4809605;29;20058;-77
2023/03/12 19:18:37;;;;;;;14.63;3.78;;;15.10;64.90;;;;;;4808799;29;20055;-77
2023/03/12 19:21:06;;;;;;;14.48;4.25;;;15.10;64.90;;;;;;4798373;29;20064;-78
2023/03/12 19:23:32;;;;;;;19.65;4.65;;;15.10;64.80;;;;;;4800720;29;20054;-76
2023/03/12 19:25:57;;;;;;;14.70;4.07;;;15.20;64.90;;;;;;4809923;29;20058;-77
2023/03/12 19:28:23;;;;;;;16.70;4.40;;;15.10;64.70;;;;;;4809698;29;20471;-78
2023/03/12 19:30:49;;;;;;;19.13;5.00;;;15.20;64.50;;;;;;4802657;29;20051;-79
2023/03/12 19:33:15;;;;;;;23.27;4.43;;;15.10;64.30;;;;;;4794992;29;20482;-78
2023/03/12 19:35:40;;;;;;;17.02;4.30;;;15.10;64.30;;;;;;4807215;29;20051;-78
2023/03/12 19:38:07;;;;;;;13.75;3.88;;;15.20;64.30;;;;;;4800375;29;20125;-78
2023/03/12 19:40:33;;;;;;;16.70;5.10;;;15.10;64.40;;;;;;4810119;29;20046;-79
2023/03/12 19:43:02;;;;;;;13.38;4.03;;;15.10;64.30;;;;;;4804345;29;20070;-80
2023/03/12 19:45:35;;;;;;;18.13;5.15;;;15.10;64.30;;;;;;4807761;29;20055;-78
2023/03/12 19:48:02;;;;;;;15.45;3.83;;;15.10;64.30;;;;;;4808910;29;20065;-79
2023/03/12 19:50:28;;;;;;;15.98;4.05;;;15.10;64.20;;;;;;4808747;29;20058;-77
2023/03/12 19:52:54;;;;;;;13.07;3.55;;;15.10;64.10;;;;;;4808567;29;20047;-78
2023/03/12 19:55:19;;;;;;;14.80;3.75;;;15.10;64.20;;;;;;4808892;29;20427;-78
2023/03/12 19:57:45;;;;;;;15.88;4.57;;;15.10;64.10;;;;;;4808726;29;20090;-75
2023/03/12 20:00:11;;;;;;;17.70;4.20;;;15.10;64.00;;;;;;4808343;29;20051;-75
2023/03/12 20:02:37;;;;;;;12.20;3.78;;;15.00;63.90;;;;;;4808880;29;20047;-75
2023/03/12 20:05:05;;;;;;;13.35;4.07;;;15.00;63.90;;;;;;4808003;29;20058;-76
2023/03/12 20:07:30;;;;;;;17.52;3.80;;;15.00;63.90;;;;;;4807675;29;20054;-77
2023/03/12 20:09:56;;;;;;;16.33;4.80;;;15.00;63.90;;;;;;4808870;29;20049;-76
2023/03/12 20:12:22;;;;;;;12.77;4.53;;;15.00;63.80;;;;;;4807656;29;20059;-76
2023/03/12 20:14:48;;;;;;;14.85;4.35;;;15.00;63.80;;;;;;4808630;29;20051;-77
2023/03/12 20:17:14;;;;;;;15.82;5.10;;;15.00;63.80;;;;;;4807022;29;20094;-75
2023/03/12 20:19:41;;;;;;;15.40;4.55;;;14.90;63.70;;;;;;4807800;29;20042;-77
2023/03/12 20:22:07;;;;;;;15.50;5.22;;;14.90;63.70;;;;;;4807037;29;20046;-76
2023/03/12 20:24:33;;;;;;;17.00;4.28;;;14.90;63.80;;;;;;4807760;29;20061;-78
2023/03/12 20:26:59;;;;;;;17.48;4.50;;;14.90;64.00;;;;;;4807570;29;20122;-77
2023/03/12 20:29:25;;;;;;;11.85;3.85;;;14.90;64.20;;;;;;4799473;29;20138;-77
2023/03/12 20:31:51;;;;;;;14.32;4.22;;;14.90;64.30;;;;;;4807775;29;20138;-78
2023/03/12 20:34:16;;;;;;;15.13;4.22;;;14.80;64.40;;;;;;4807544;29;20043;-78
2023/03/12 20:36:42;;;;;;;14.68;4.15;;;14.80;64.50;;;;;;4808207;29;20088;-79
2023/03/12 20:39:08;;;;;;;18.63;5.00;;;14.80;64.20;;;;;;4807930;29;20050;-77
2023/03/12 20:41:34;;;;;;;15.73;4.85;;;14.80;64.30;;;;;;4808277;29;20090;-79
2023/03/12 20:43:59;;;;;;;15.40;4.78;;;14.80;64.10;;;;;;4799328;29;20070;-81
2023/03/12 20:46:25;;;;;;;17.65;4.65;;;14.80;64.00;;;;;;4801340;29;20054;-80
2023/03/12 20:48:51;;;;;;;20.02;4.53;;;14.80;63.60;;;;;;4808175;29;20127;-81
2023/03/12 20:51:17;;;;;;;15.55;4.15;;;14.80;63.50;;;;;;4799962;29;20368;-81
2023/03/12 20:53:43;;;;;;;18.38;4.30;;;14.80;63.60;;;;;;4807429;29;20050;-78
2023/03/12 20:56:08;;;;;;;24.27;5.38;;;14.70;63.50;;;;;;4806663;29;20047;-81
2023/03/12 20:58:34;;;;;;;21.55;5.32;;;14.70;63.60;;;;;;4801586;29;20058;-80
2023/03/12 21:01:01;;;;;;;22.40;5.22;;;14.70;63.70;;;;;;4804074;29;20133;-80
2023/03/12 21:03:27;;;;;;;20.60;4.78;;;14.60;63.50;;;;;;4806728;29;20046;-79